This is the latest recevied weather packets stored in our database for station/object N5PRN. If no packets are shown the sender has not sent any weather packets the latest 10 day(s).
| Time | Temp. | Humidity | Pressure | Rain* | Wind** | Luminosity | Snow |
|---|---|---|---|---|---|---|---|
| 1777483049 | 27.78° C | 83% | 1012.9 hPa | 0 mm | - | 261 W/m² | - |
| 1777482746 | 27.78° C | 82% | 1013 hPa | 0 mm | - | 266 W/m² | - |
| 1777481838 | 27.78° C | 84% | 1013.2 hPa | 0 mm | - | 293 W/m² | - |
| 1777481535 | 27.22° C | 84% | 1013.5 hPa | 0 mm | - | 224 W/m² | - |
| 1777480321 | 27.78° C | 84% | 1013.4 hPa | 0 mm | - | 407 W/m² | - |
| 1777480017 | 27.22° C | 84% | 1013.5 hPa | 0 mm | - | 293 W/m² | - |
| 1777479108 | 26.67° C | 85% | 1013.4 hPa | 0 mm | - | 180 W/m² | - |
| 1777478502 | 27.22° C | 84% | 1013.6 hPa | 0 mm | - | 146 W/m² | - |
| 1777478199 | 27.22° C | 84% | 1013.7 hPa | 0 mm | - | 135 W/m² | - |
| 1777473336 | 26.11° C | 87% | 1013.1 hPa | 0 mm | - | 453 W/m² | - |
| 1777471817 | 25.56° C | 88% | 1013.6 hPa | 0 mm | - | 311 W/m² | - |
| 1777469388 | 23.89° C | 92% | 1013 hPa | 0 mm | - | 127 W/m² | - |
| 1777468778 | 23.89° C | 93% | 1013 hPa | 0 mm | - | 105 W/m² | - |
| 1777468475 | 23.89° C | 93% | 1013.3 hPa | 0 mm | - | 96 W/m² | - |
| 1777468172 | 23.89° C | 93% | 1013.3 hPa | 0 mm | - | 93 W/m² | - |
| 1777467259 | 23.33° C | 94% | 1013.5 hPa | 0 mm | - | 81 W/m² | - |
| 1777466349 | 23.33° C | 94% | 1013.1 hPa | 0 mm | - | 64 W/m² | - |
| 1777466046 | 22.78° C | 94% | 1013.1 hPa | 0 mm | - | 59 W/m² | - |
| 1777465743 | 22.78° C | 94% | 1013.2 hPa | 0 mm | - | 55 W/m² | - |
| 1777465438 | 22.78° C | 94% | 1013.1 hPa | 0 mm | - | 49 W/m² | - |
| 1777465137 | 22.78° C | 94% | 1013.1 hPa | 0 mm | - | 43 W/m² | - |
| 1777464833 | 22.78° C | 94% | 1013.1 hPa | 0 mm | - | 40 W/m² | - |
| 1777464528 | 22.78° C | 94% | 1012.8 hPa | 0 mm | - | 30 W/m² | - |
| 1777464224 | 22.78° C | 94% | 1012.8 hPa | 0 mm | - | 26 W/m² | - |
| 1777463615 | 22.78° C | 94% | 1013.1 hPa | 0 mm | - | 19 W/m² | - |
* Rain latest hour (hover to see other rain measurements)
** Current wind speed in m/s (hover to see current wind gust speed)